createdAt,value
2023-02-05T00:00:28.121Z,13.50
2023-02-05T00:02:31.042Z,11.48
2023-02-05T00:04:34.321Z,7.53
2023-02-05T00:06:37.745Z,13.43
2023-02-05T00:08:40.639Z,10.63
2023-02-05T00:10:43.447Z,13.55
2023-02-05T00:12:47.602Z,13.13
2023-02-05T00:14:50.373Z,17.50
2023-02-05T00:16:53.508Z,12.73
2023-02-05T00:18:58.102Z,11.48
2023-02-05T00:21:00.896Z,13.82
2023-02-05T00:23:03.716Z,12.55
2023-02-05T00:25:07.443Z,16.25
2023-02-05T00:27:10.540Z,11.45
2023-02-05T00:29:15.548Z,9.50
2023-02-05T00:31:20.743Z,9.15
2023-02-05T00:33:23.626Z,14.10
2023-02-05T00:35:26.450Z,10.13
2023-02-05T00:37:29.260Z,11.40
2023-02-05T00:39:32.085Z,12.02
2023-02-05T00:41:34.901Z,12.65
2023-02-05T00:43:38.058Z,13.48
2023-02-05T00:45:42.237Z,15.30
2023-02-05T00:47:45.071Z,14.23
2023-02-05T00:49:47.900Z,13.00
2023-02-05T00:51:50.701Z,11.68
2023-02-05T00:53:53.606Z,11.60
2023-02-05T00:55:56.767Z,15.82
2023-02-05T00:58:01.160Z,12.73
2023-02-05T01:00:04.020Z,12.48
2023-02-05T01:02:08.224Z,12.88
2023-02-05T01:04:11.059Z,11.52
2023-02-05T01:06:16.625Z,12.07
2023-02-05T01:08:19.430Z,12.77
2023-02-05T01:10:22.175Z,11.10
2023-02-05T01:12:25.539Z,14.50
2023-02-05T01:14:28.324Z,12.10
2023-02-05T01:16:31.176Z,18.33
2023-02-05T01:18:35.457Z,13.60
2023-02-05T01:20:38.742Z,17.20
2023-02-05T01:22:41.962Z,10.30
2023-02-05T01:24:44.736Z,11.20
2023-02-05T01:26:48.600Z,12.13
2023-02-05T01:28:51.395Z,14.85
2023-02-05T01:30:54.654Z,9.88
2023-02-05T01:32:57.497Z,8.20
2023-02-05T01:35:01.849Z,11.23
2023-02-05T01:37:04.712Z,12.32
2023-02-05T01:39:07.567Z,13.00
2023-02-05T01:41:12.180Z,8.45
2023-02-05T01:43:15.190Z,12.52
2023-02-05T01:46:04.615Z,14.57
2023-02-05T01:48:10.598Z,12.75
2023-02-05T01:50:15.697Z,14.68
2023-02-05T01:52:19.223Z,13.32
2023-02-05T01:54:25.859Z,10.88
2023-02-05T01:56:33.007Z,8.85
2023-02-05T01:58:41.580Z,14.13
2023-02-05T02:00:44.482Z,10.93
2023-02-05T02:02:47.324Z,9.70
2023-02-05T02:04:54.260Z,10.52
2023-02-05T02:06:58.458Z,7.72
2023-02-05T02:09:03.590Z,13.23
2023-02-05T02:11:08.096Z,10.88
2023-02-05T02:13:11.800Z,14.55
2023-02-05T02:15:17.409Z,10.63
2023-02-05T02:17:21.588Z,12.95
2023-02-05T02:19:29.391Z,12.07
2023-02-05T02:22:09.692Z,10.75
2023-02-05T02:24:41.244Z,11.45
2023-02-05T02:26:57.703Z,13.32
2023-02-05T02:29:04.311Z,11.95
2023-02-05T02:31:12.057Z,12.75
2023-02-05T02:33:20.115Z,10.50
2023-02-05T02:35:28.420Z,11.32
2023-02-05T02:37:36.738Z,13.40
2023-02-05T02:39:45.637Z,11.43
2023-02-05T02:41:53.697Z,11.50
2023-02-05T02:44:08.009Z,14.43
2023-02-05T02:46:19.943Z,11.38
2023-02-05T02:48:26.158Z,13.48
2023-02-05T02:50:34.698Z,12.10
2023-02-05T02:52:43.173Z,16.23
2023-02-05T02:54:49.791Z,11.73
2023-02-05T02:56:57.741Z,12.15
2023-02-05T02:59:07.221Z,14.10
2023-02-05T03:01:12.968Z,10.57
2023-02-05T03:03:19.924Z,9.90
2023-02-05T03:05:24.789Z,9.40
2023-02-05T03:07:33.064Z,10.02
2023-02-05T03:09:42.395Z,13.23
2023-02-05T03:11:45.649Z,9.93
2023-02-05T03:13:49.532Z,8.55
2023-02-05T03:15:57.338Z,11.20
2023-02-05T03:18:00.372Z,7.32
2023-02-05T03:20:09.502Z,8.23
2023-02-05T03:22:12.640Z,7.50
2023-02-05T03:24:15.508Z,8.75
2023-02-05T03:26:26.375Z,6.75
2023-02-05T03:28:34.267Z,8.15
2023-02-05T03:32:59.536Z,8.52
2023-02-05T03:35:14.881Z,7.47
2023-02-05T03:37:28.793Z,5.63
2023-02-05T03:39:44.062Z,8.68
2023-02-05T03:41:59.480Z,10.25
2023-02-05T03:44:14.039Z,9.05
2023-02-05T03:46:21.759Z,8.15
2023-02-05T03:48:38.830Z,6.72
2023-02-05T03:50:44.612Z,6.70
2023-02-05T03:52:52.569Z,7.28
2023-02-05T03:55:06.859Z,7.38
2023-02-05T03:57:16.995Z,7.23
2023-02-05T03:59:22.916Z,6.45
2023-02-05T04:01:27.368Z,7.28
2023-02-05T04:03:31.656Z,5.80
2023-02-05T04:05:35.013Z,8.13
2023-02-05T04:07:39.364Z,6.40
2023-02-05T04:09:43.104Z,10.45
2023-02-05T04:11:46.169Z,10.50
2023-02-05T04:13:49.072Z,8.27
2023-02-05T04:15:52.538Z,7.22
2023-02-05T04:17:57.839Z,6.28
2023-02-05T04:20:03.959Z,6.88
2023-02-05T04:22:07.314Z,7.70
2023-02-05T04:24:13.097Z,7.82
2023-02-05T04:26:16.336Z,7.03
2023-02-05T04:28:27.282Z,8.35
2023-02-05T04:30:30.190Z,5.13
2023-02-05T04:32:33.021Z,8.70
2023-02-05T04:34:35.843Z,7.75
2023-02-05T04:36:40.992Z,7.63
2023-02-05T04:38:44.179Z,7.10
2023-02-05T04:40:46.981Z,7.25
2023-02-05T04:42:49.757Z,8.30
2023-02-05T04:44:52.774Z,5.60
2023-02-05T04:46:55.737Z,6.60
2023-02-05T04:48:58.490Z,8.10
2023-02-05T04:51:01.243Z,6.43
2023-02-05T04:53:05.583Z,9.57
2023-02-05T04:55:08.968Z,6.05
2023-02-05T04:57:11.866Z,7.00
2023-02-05T04:59:14.628Z,8.68
2023-02-05T05:01:19.837Z,6.55
2023-02-05T05:03:22.620Z,8.52
2023-02-05T05:05:25.431Z,12.02
2023-02-05T05:07:30.860Z,7.72
2023-02-05T05:09:35.073Z,7.05
2023-02-05T05:11:37.932Z,12.20
2023-02-05T05:13:40.994Z,7.78
2023-02-05T05:15:43.783Z,9.93
2023-02-05T05:17:46.558Z,8.98
2023-02-05T05:19:49.387Z,8.15
2023-02-05T05:21:52.263Z,6.72
2023-02-05T05:23:55.054Z,9.23
2023-02-05T05:25:59.655Z,12.82
2023-02-05T05:28:02.532Z,7.18
2023-02-05T05:30:05.757Z,8.38
2023-02-05T05:32:08.620Z,6.13
2023-02-05T05:34:11.465Z,8.93
2023-02-05T05:36:14.999Z,7.82
2023-02-05T05:38:17.824Z,11.60
2023-02-05T05:40:38.537Z,7.22
2023-02-05T05:43:00.220Z,11.20
2023-02-05T05:45:03.026Z,10.80
2023-02-05T05:47:05.915Z,9.32
2023-02-05T05:49:08.717Z,10.27
2023-02-05T05:51:11.540Z,9.25
2023-02-05T05:53:14.411Z,10.80
2023-02-05T05:55:17.351Z,7.72
2023-02-05T05:57:20.916Z,10.90
2023-02-05T05:59:25.114Z,7.13
2023-02-05T06:01:28.502Z,10.20
2023-02-05T06:03:31.305Z,11.23
2023-02-05T06:05:34.895Z,8.27
2023-02-05T06:07:38.172Z,6.10
2023-02-05T06:09:40.960Z,8.57
2023-02-05T06:11:43.822Z,11.00
2023-02-05T06:13:46.782Z,10.60
2023-02-05T06:15:50.980Z,7.65
2023-02-05T06:17:54.073Z,10.07
2023-02-05T06:19:56.848Z,10.05
2023-02-05T06:21:59.607Z,9.27
2023-02-05T06:24:02.415Z,13.13
2023-02-05T06:26:05.502Z,13.98
2023-02-05T06:28:08.312Z,9.52
2023-02-05T06:30:12.405Z,11.25
2023-02-05T06:32:16.613Z,9.83
2023-02-05T06:34:19.403Z,9.98
2023-02-05T06:36:22.256Z,10.55
2023-02-05T06:38:25.070Z,13.10
2023-02-05T06:40:28.348Z,13.50
2023-02-05T06:42:31.151Z,11.20
2023-02-05T06:44:34.335Z,11.10
2023-02-05T06:46:37.152Z,14.10
2023-02-05T06:48:41.249Z,14.23
2023-02-05T06:50:43.999Z,15.23
2023-02-05T06:52:46.896Z,12.55
2023-02-05T06:54:49.614Z,14.32
2023-02-05T06:56:52.402Z,11.40
2023-02-05T06:58:55.186Z,10.52
2023-02-05T07:00:57.970Z,17.08
2023-02-05T07:03:00.834Z,11.85
2023-02-05T07:05:05.272Z,8.85
2023-02-05T07:07:08.128Z,12.75
2023-02-05T07:09:10.929Z,13.43
2023-02-05T07:11:13.658Z,14.48
2023-02-05T07:13:16.375Z,13.70
2023-02-05T07:15:19.601Z,13.98
2023-02-05T07:17:22.415Z,12.55
2023-02-05T07:19:25.425Z,13.52
2023-02-05T07:21:29.711Z,14.20
2023-02-05T07:23:32.510Z,8.30
2023-02-05T07:25:37.780Z,17.95
2023-02-05T07:27:40.634Z,13.88
2023-02-05T07:29:43.431Z,19.65
2023-02-05T07:31:46.259Z,16.20
2023-02-05T07:33:49.678Z,14.70
2023-02-05T07:35:54.616Z,14.15
2023-02-05T07:40:01.424Z,14.02
2023-02-05T07:42:04.219Z,19.23
2023-02-05T07:44:16.764Z,21.50
2023-02-05T07:46:20.589Z,14.85
2023-02-05T07:48:23.364Z,17.20
2023-02-05T07:50:26.196Z,17.45
2023-02-05T07:52:29.110Z,13.40
2023-02-05T07:54:33.213Z,17.95
2023-02-05T07:56:36.086Z,17.30
2023-02-05T07:58:38.885Z,15.02
2023-02-05T08:00:42.061Z,14.32
2023-02-05T08:02:44.871Z,15.30
2023-02-05T08:04:47.630Z,14.45
2023-02-05T08:06:50.423Z,16.92
2023-02-05T08:08:53.461Z,15.40
2023-02-05T08:10:58.660Z,13.38
2023-02-05T08:13:01.396Z,15.40
2023-02-05T08:15:04.530Z,18.33
2023-02-05T08:17:07.323Z,21.00
2023-02-05T08:19:15.446Z,15.25
2023-02-05T08:21:21.711Z,16.30
2023-02-05T08:23:24.502Z,15.82
2023-02-05T08:25:27.276Z,17.58
2023-02-05T08:27:33.137Z,20.80
2023-02-05T08:29:35.942Z,20.27
2023-02-05T08:31:39.097Z,16.10
2023-02-05T08:33:41.956Z,16.95
2023-02-05T08:35:44.860Z,23.00
2023-02-05T08:37:47.638Z,15.18
2023-02-05T08:39:50.677Z,19.08
2023-02-05T08:41:54.917Z,21.30
2023-02-05T08:44:00.918Z,16.90
2023-02-05T08:46:04.937Z,15.98
2023-02-05T08:48:07.822Z,17.17
2023-02-05T08:50:11.574Z,22.20
2023-02-05T08:52:14.384Z,19.45
2023-02-05T08:54:17.337Z,21.20
2023-02-05T08:56:20.497Z,26.67
2023-02-05T08:58:23.538Z,20.33
2023-02-05T09:00:28.283Z,20.25
2023-02-05T09:02:32.211Z,17.48
2023-02-05T09:04:35.127Z,20.73
2023-02-05T09:06:37.988Z,20.45
2023-02-05T09:08:41.500Z,15.40
2023-02-05T09:10:45.452Z,18.33
2023-02-05T09:12:48.636Z,20.40
2023-02-05T09:14:51.382Z,19.52
2023-02-05T09:16:55.588Z,18.88
2023-02-05T09:18:59.519Z,16.00
2023-02-05T09:21:07.532Z,19.60
2023-02-05T09:23:11.844Z,26.30
2023-02-05T09:25:14.635Z,20.75
2023-02-05T09:27:17.684Z,20.60
2023-02-05T09:29:20.578Z,22.65
2023-02-05T09:31:23.519Z,17.90
2023-02-05T09:33:27.702Z,15.93
2023-02-05T09:35:32.237Z,20.08
2023-02-05T09:37:35.278Z,20.85
2023-02-05T09:42:09.559Z,22.33
2023-02-05T09:44:23.313Z,17.45
2023-02-05T09:46:33.576Z,21.90
2023-02-05T09:48:53.066Z,22.90
2023-02-05T09:50:58.063Z,21.48
2023-02-05T09:53:03.265Z,18.48
2023-02-05T09:55:18.297Z,18.15
2023-02-05T09:57:32.468Z,20.48
2023-02-05T09:59:35.795Z,24.45
2023-02-05T10:01:45.348Z,20.70
2023-02-05T10:03:54.202Z,19.55
2023-02-05T10:06:12.974Z,24.30
2023-02-05T10:08:22.684Z,23.65
2023-02-05T10:10:27.560Z,18.33
2023-02-05T10:14:49.919Z,20.25
2023-02-05T10:17:08.486Z,27.00
2023-02-05T10:19:34.996Z,19.88
2023-02-05T10:21:53.366Z,23.95
2023-02-05T10:24:17.254Z,22.17
2023-02-05T10:26:21.622Z,20.88
2023-02-05T10:28:36.475Z,23.85
2023-02-05T10:30:47.247Z,28.80
2023-02-05T10:32:57.371Z,22.85
2023-02-05T10:35:07.472Z,21.98
2023-02-05T10:37:15.702Z,24.27
2023-02-05T10:39:21.194Z,24.33
2023-02-05T10:41:30.822Z,21.70
2023-02-05T10:43:41.668Z,19.65
2023-02-05T10:45:45.382Z,18.23
2023-02-05T10:48:02.266Z,27.13
2023-02-05T10:50:15.574Z,22.35
2023-02-05T10:52:18.621Z,21.10
2023-02-05T10:54:27.340Z,21.40
2023-02-05T10:56:30.164Z,22.58
2023-02-05T10:58:40.374Z,22.83
2023-02-05T11:00:43.203Z,20.40
2023-02-05T11:02:50.121Z,23.38
2023-02-05T11:04:57.785Z,19.60
2023-02-05T11:07:06.130Z,16.73
2023-02-05T11:09:31.501Z,24.42
2023-02-05T11:11:34.398Z,26.20
2023-02-05T11:13:42.765Z,25.85
2023-02-05T11:15:55.957Z,18.48
2023-02-05T11:18:01.596Z,22.65
2023-02-05T11:20:08.170Z,24.08
2023-02-05T11:22:27.858Z,31.98
2023-02-05T11:24:33.129Z,26.67
2023-02-05T11:26:35.930Z,18.27
2023-02-05T11:28:40.630Z,24.42
2023-02-05T11:30:51.727Z,24.00
2023-02-05T11:32:55.394Z,23.40
2023-02-05T11:35:11.191Z,23.20
2023-02-05T11:37:18.386Z,22.30
2023-02-05T11:39:34.044Z,22.75
2023-02-05T11:41:48.192Z,22.77
2023-02-05T11:43:52.438Z,17.95
2023-02-05T11:45:57.914Z,18.90
2023-02-05T11:48:03.720Z,23.92
2023-02-05T11:50:19.395Z,22.65
2023-02-05T11:52:28.747Z,24.38
2023-02-05T11:54:45.971Z,22.88
2023-02-05T11:57:06.311Z,30.48
2023-02-05T11:59:21.596Z,24.80
2023-02-05T12:01:25.666Z,24.05
2023-02-05T12:03:31.441Z,23.95
2023-02-05T12:05:38.198Z,24.77
2023-02-05T12:07:47.657Z,24.70
2023-02-05T12:09:53.605Z,26.08
2023-02-05T12:12:11.098Z,30.17
2023-02-05T12:14:20.590Z,26.40
2023-02-05T12:16:46.333Z,24.63
2023-02-05T12:19:00.037Z,18.33
2023-02-05T12:21:14.174Z,20.55
2023-02-05T12:23:43.508Z,24.25
2023-02-05T12:25:57.283Z,15.57
2023-02-05T12:28:21.192Z,27.27
2023-02-05T12:30:49.006Z,27.38
2023-02-05T12:32:58.833Z,26.40
2023-02-05T12:35:23.380Z,24.88
2023-02-05T12:37:39.658Z,22.50
2023-02-05T12:39:47.909Z,22.73
2023-02-05T12:42:01.990Z,20.00
2023-02-05T12:44:17.518Z,23.17
2023-02-05T12:46:47.705Z,18.20
2023-02-05T12:49:06.057Z,19.95
2023-02-05T12:51:30.420Z,19.48
2023-02-05T12:53:46.362Z,22.65
2023-02-05T12:56:10.686Z,20.45
2023-02-05T12:58:15.800Z,18.33
2023-02-05T13:00:22.879Z,21.30
2023-02-05T13:02:33.824Z,17.77
2023-02-05T13:04:41.804Z,22.00
2023-02-05T13:06:52.683Z,18.85
2023-02-05T13:09:01.898Z,21.50
2023-02-05T13:11:13.681Z,22.52
2023-02-05T13:13:21.888Z,19.55
2023-02-05T13:15:28.124Z,21.33
2023-02-05T13:17:35.407Z,20.02
2023-02-05T13:19:41.140Z,18.02
2023-02-05T13:22:02.798Z,21.98
2023-02-05T13:24:39.761Z,21.48
2023-02-05T13:27:04.827Z,21.75
2023-02-05T13:29:12.874Z,26.83
2023-02-05T13:31:32.208Z,19.23
2023-02-05T13:33:35.530Z,21.55
2023-02-05T13:35:49.664Z,21.52
2023-02-05T13:38:10.453Z,18.52
2023-02-05T13:40:48.760Z,23.13
2023-02-05T13:43:32.898Z,22.83
2023-02-05T13:46:08.439Z,22.73
2023-02-05T13:48:30.920Z,21.92
2023-02-05T13:51:06.878Z,18.80
2023-02-05T13:53:24.412Z,23.25
2023-02-05T13:55:40.803Z,22.77
2023-02-05T13:58:09.338Z,24.35
2023-02-05T14:00:15.444Z,24.30
2023-02-05T14:02:34.929Z,23.40
2023-02-05T14:04:41.570Z,23.98
2023-02-05T14:06:47.860Z,21.83
2023-02-05T14:08:57.695Z,29.25
2023-02-05T14:11:03.108Z,20.92
2023-02-05T14:13:18.354Z,24.35
2023-02-05T14:15:38.619Z,18.27
2023-02-05T14:17:55.601Z,21.45
2023-02-05T14:20:01.006Z,18.55
2023-02-05T14:22:08.135Z,23.33
2023-02-05T14:24:29.166Z,24.63
2023-02-05T14:26:47.920Z,16.58
2023-02-05T14:28:53.117Z,21.75
2023-02-05T14:30:58.719Z,19.65
2023-02-05T14:33:03.239Z,24.42
2023-02-05T14:35:27.030Z,25.67
2023-02-05T14:37:39.628Z,27.17
2023-02-05T14:39:43.732Z,20.85
2023-02-05T14:41:51.503Z,23.70
2023-02-05T14:43:58.488Z,22.60
2023-02-05T14:46:07.446Z,24.00
2023-02-05T14:48:21.112Z,24.92
2023-02-05T14:50:27.666Z,22.92
2023-02-05T14:52:34.420Z,21.40
2023-02-05T14:54:45.087Z,21.90
2023-02-05T14:56:50.524Z,28.15
2023-02-05T14:59:01.626Z,22.73
2023-02-05T15:01:47.019Z,22.55
2023-02-05T15:03:53.247Z,24.77
2023-02-05T15:06:01.702Z,25.48
2023-02-05T15:08:15.191Z,21.10
2023-02-05T15:10:22.822Z,21.30
2023-02-05T15:12:36.534Z,26.77
2023-02-05T15:14:45.072Z,20.17
2023-02-05T15:16:48.092Z,23.92
2023-02-05T15:18:56.295Z,22.25
2023-02-05T15:21:00.438Z,22.08
2023-02-05T15:23:17.781Z,21.05
2023-02-05T15:25:36.983Z,24.27
2023-02-05T15:27:43.889Z,20.92
2023-02-05T15:29:49.676Z,26.25
2023-02-05T15:31:55.373Z,20.67
2023-02-05T15:34:07.239Z,33.90
2023-02-05T15:36:19.684Z,33.05
2023-02-05T15:38:33.455Z,30.10
2023-02-05T15:40:41.277Z,19.92
2023-02-05T15:42:46.384Z,20.58
2023-02-05T15:44:49.262Z,15.15
2023-02-05T15:46:53.145Z,19.75
2023-02-05T15:48:57.089Z,22.75
2023-02-05T15:51:06.911Z,19.30
2023-02-05T15:53:11.453Z,23.83
2023-02-05T15:55:20.619Z,21.27
2023-02-05T15:57:26.924Z,18.90
2023-02-05T15:59:31.752Z,16.77
2023-02-05T16:01:37.214Z,18.20
2023-02-05T16:03:40.063Z,17.60
2023-02-05T16:05:52.879Z,16.30
2023-02-05T16:07:58.974Z,14.65
2023-02-05T16:10:04.208Z,16.25
2023-02-05T16:12:12.648Z,14.80
2023-02-05T16:14:16.785Z,16.02
2023-02-05T16:16:24.320Z,18.85
2023-02-05T16:18:37.506Z,14.57
2023-02-05T16:20:44.095Z,16.48
2023-02-05T16:22:52.448Z,17.17
2023-02-05T16:25:01.226Z,19.38
2023-02-05T16:27:11.753Z,19.33
2023-02-05T16:29:25.831Z,16.70
2023-02-05T16:31:33.499Z,16.77
2023-02-05T16:33:41.817Z,18.00
2023-02-05T16:35:49.034Z,17.92
2023-02-05T16:37:52.664Z,17.20
2023-02-05T16:39:59.345Z,18.38
2023-02-05T16:42:05.281Z,21.77
2023-02-05T16:44:26.523Z,16.73
2023-02-05T16:46:30.333Z,15.52
2023-02-05T16:48:34.172Z,13.38
2023-02-05T16:50:42.266Z,17.13
2023-02-05T16:52:45.042Z,18.85
2023-02-05T16:54:47.904Z,22.00
2023-02-05T16:56:56.929Z,15.77
2023-02-05T16:59:02.294Z,15.35
2023-02-05T17:01:05.586Z,19.25
2023-02-05T17:03:17.730Z,19.63
2023-02-05T17:05:24.582Z,16.35
2023-02-05T17:07:28.160Z,21.25
2023-02-05T17:09:34.729Z,16.55
2023-02-05T17:11:39.600Z,21.08
2023-02-05T17:13:46.740Z,17.08
2023-02-05T17:15:49.814Z,16.52
2023-02-05T17:17:54.982Z,19.88
2023-02-05T17:20:06.041Z,18.50
2023-02-05T17:22:19.940Z,21.58
2023-02-05T17:24:26.625Z,18.52
2023-02-05T17:26:31.699Z,19.25
2023-02-05T17:28:38.067Z,20.10
2023-02-05T17:30:44.433Z,16.25
2023-02-05T17:32:48.049Z,17.58
2023-02-05T17:34:50.927Z,21.98
2023-02-05T17:36:53.687Z,18.25
2023-02-05T17:38:57.396Z,17.88
2023-02-05T17:41:14.272Z,20.45
2023-02-05T17:43:17.099Z,20.10
2023-02-05T17:45:22.783Z,18.85
2023-02-05T17:47:26.917Z,19.38
2023-02-05T17:49:30.182Z,20.73
2023-02-05T17:51:33.136Z,18.77
2023-02-05T17:53:35.978Z,22.30
2023-02-05T17:55:40.144Z,24.92
2023-02-05T17:57:44.726Z,20.00
2023-02-05T17:59:48.308Z,23.83
2023-02-05T18:01:51.801Z,22.83
2023-02-05T18:03:55.938Z,25.92
2023-02-05T18:05:59.154Z,22.83
2023-02-05T18:08:03.089Z,28.45
2023-02-05T18:10:07.147Z,24.77
2023-02-05T18:12:10.126Z,21.00
2023-02-05T18:14:13.013Z,20.42
2023-02-05T18:16:15.844Z,20.58
2023-02-05T18:18:18.760Z,22.20
2023-02-05T18:20:23.536Z,21.05
2023-02-05T18:22:27.087Z,19.90
2023-02-05T18:24:30.788Z,17.65
2023-02-05T18:26:33.545Z,19.00
2023-02-05T18:28:36.908Z,19.77
2023-02-05T18:30:39.801Z,19.00
2023-02-05T18:32:42.857Z,17.67
2023-02-05T18:34:45.668Z,15.25
2023-02-05T18:36:49.812Z,14.95
2023-02-05T18:38:52.715Z,16.27
2023-02-05T18:40:55.555Z,15.05
2023-02-05T18:42:58.362Z,17.55
2023-02-05T18:45:01.663Z,16.17
2023-02-05T18:47:05.879Z,15.32
2023-02-05T18:49:08.679Z,16.77
2023-02-05T18:51:13.829Z,14.35
2023-02-05T18:53:18.040Z,13.48
2023-02-05T18:55:20.825Z,15.25
2023-02-05T18:57:23.596Z,16.27
2023-02-05T18:59:26.458Z,16.15
2023-02-05T19:01:30.566Z,18.33
2023-02-05T19:03:33.620Z,16.25
2023-02-05T19:05:36.392Z,16.88
2023-02-05T19:07:39.544Z,14.57
2023-02-05T19:09:43.740Z,16.52
2023-02-05T19:11:46.598Z,12.20
2023-02-05T19:13:56.314Z,13.80
2023-02-05T19:16:04.981Z,14.70
2023-02-05T19:18:07.827Z,16.38
2023-02-05T19:20:11.136Z,16.17
2023-02-05T19:22:15.041Z,15.68
2023-02-05T19:24:18.428Z,18.20
2023-02-05T19:26:25.676Z,17.58
2023-02-05T19:28:28.495Z,16.60
2023-02-05T19:30:31.390Z,15.35
2023-02-05T19:32:35.180Z,15.75
2023-02-05T19:34:40.113Z,15.63
2023-02-05T19:38:45.627Z,14.77
2023-02-05T19:40:48.457Z,13.88
2023-02-05T19:42:54.013Z,16.15
2023-02-05T19:44:57.794Z,16.73
2023-02-05T19:47:00.615Z,16.27
2023-02-05T19:49:05.201Z,15.60
2023-02-05T19:51:10.164Z,16.83
2023-02-05T19:53:13.009Z,15.43
2023-02-05T19:55:15.965Z,14.80
2023-02-05T19:57:18.771Z,15.38
2023-02-05T19:59:22.969Z,15.52
2023-02-05T20:01:27.524Z,15.65
2023-02-05T20:03:30.840Z,13.65
2023-02-05T20:05:36.732Z,13.38
2023-02-05T20:07:39.508Z,13.18
2023-02-05T20:09:42.342Z,12.90
2023-02-05T20:11:47.606Z,14.80
2023-02-05T20:13:50.516Z,12.98
2023-02-05T20:15:54.919Z,14.40
2023-02-05T20:17:58.591Z,12.98
2023-02-05T20:20:12.353Z,14.20
2023-02-05T20:22:19.969Z,13.23
2023-02-05T20:24:22.780Z,12.20
2023-02-05T20:26:26.259Z,11.70
2023-02-05T20:28:29.136Z,13.68
2023-02-05T20:30:49.433Z,13.45
2023-02-05T20:32:53.606Z,12.90
2023-02-05T20:34:56.323Z,13.60
2023-02-05T20:37:00.989Z,13.30
2023-02-05T20:41:12.020Z,13.60
2023-02-05T20:43:14.822Z,12.43
2023-02-05T20:45:17.715Z,12.52
2023-02-05T20:47:20.526Z,13.70
2023-02-05T20:49:26.533Z,12.93
2023-02-05T20:51:29.341Z,12.82
2023-02-05T20:53:32.216Z,13.20
2023-02-05T20:55:35.111Z,13.48
2023-02-05T20:57:37.901Z,12.55
2023-02-05T20:59:41.049Z,11.50
2023-02-05T21:01:43.935Z,12.25
2023-02-05T21:03:50.348Z,12.00
2023-02-05T21:05:57.709Z,12.32
2023-02-05T21:08:00.515Z,10.52
2023-02-05T21:10:05.567Z,11.52
2023-02-05T21:12:08.763Z,10.80
2023-02-05T21:14:12.268Z,10.10
2023-02-05T21:16:16.754Z,10.15
2023-02-05T21:18:19.599Z,10.20
2023-02-05T21:20:22.277Z,10.77
2023-02-05T21:22:26.435Z,9.40
2023-02-05T21:24:29.184Z,11.10
2023-02-05T21:26:35.392Z,12.23
2023-02-05T21:28:38.205Z,9.18
2023-02-05T21:30:42.888Z,11.02
2023-02-05T21:32:45.715Z,10.38
2023-02-05T21:34:48.465Z,10.68
2023-02-05T21:36:52.544Z,9.52
2023-02-05T21:38:56.978Z,10.40
2023-02-05T21:40:59.730Z,8.20
2023-02-05T21:43:02.486Z,8.98
2023-02-05T21:45:05.918Z,10.30
2023-02-05T21:47:09.485Z,10.82
2023-02-05T21:49:12.784Z,9.07
2023-02-05T21:51:16.762Z,9.68
2023-02-05T21:53:19.498Z,10.53
2023-02-05T21:55:24.065Z,9.57
2023-02-05T21:57:26.866Z,8.90
2023-02-05T21:59:29.607Z,9.07
2023-02-05T22:01:34.369Z,9.30
2023-02-05T22:03:37.105Z,9.45
2023-02-05T22:05:39.923Z,9.23
2023-02-05T22:07:42.732Z,8.85
2023-02-05T22:09:45.457Z,9.68
2023-02-05T22:11:50.380Z,10.40
2023-02-05T22:16:03.083Z,9.90
2023-02-05T22:18:05.957Z,10.40
2023-02-05T22:20:09.315Z,10.68
2023-02-05T22:22:12.028Z,8.57
2023-02-05T22:24:16.384Z,9.15
2023-02-05T22:26:21.695Z,9.57
2023-02-05T22:28:25.984Z,9.57
2023-02-05T22:30:28.803Z,11.63
2023-02-05T22:32:32.053Z,10.43
2023-02-05T22:34:34.963Z,9.38
2023-02-05T22:36:38.488Z,8.40
2023-02-05T22:38:42.816Z,11.63
2023-02-05T22:40:45.629Z,9.93
2023-02-05T22:42:48.397Z,8.70
2023-02-05T22:44:52.482Z,9.82
2023-02-05T22:46:55.236Z,10.48
2023-02-05T22:49:00.067Z,10.07
2023-02-05T22:51:04.263Z,10.48
2023-02-05T22:53:07.088Z,9.38
2023-02-05T22:55:09.915Z,10.52
2023-02-05T22:57:12.688Z,10.40
2023-02-05T22:59:15.456Z,11.13
2023-02-05T23:01:21.333Z,10.25
2023-02-05T23:03:24.514Z,10.70
2023-02-05T23:05:32.322Z,11.82
2023-02-05T23:07:35.024Z,12.32
2023-02-05T23:09:37.857Z,9.55
2023-02-05T23:11:40.810Z,9.68
2023-02-05T23:13:43.599Z,11.00
2023-02-05T23:15:46.366Z,10.63
2023-02-05T23:17:50.589Z,9.27
2023-02-05T23:19:54.301Z,10.10
2023-02-05T23:21:57.210Z,10.00
2023-02-05T23:24:00.412Z,10.05
2023-02-05T23:26:07.152Z,9.90
2023-02-05T23:28:09.955Z,8.15
2023-02-05T23:30:14.024Z,9.90
2023-02-05T23:32:16.786Z,9.93
2023-02-05T23:34:20.956Z,11.48
2023-02-05T23:36:24.083Z,10.02
2023-02-05T23:38:27.296Z,8.40
2023-02-05T23:40:30.072Z,8.70
2023-02-05T23:42:32.896Z,9.65
2023-02-05T23:44:35.683Z,9.80
2023-02-05T23:46:38.988Z,7.93
2023-02-05T23:48:41.752Z,9.88
2023-02-05T23:50:49.444Z,9.70
2023-02-05T23:52:52.226Z,9.63
2023-02-05T23:54:54.952Z,9.32
2023-02-05T23:56:57.829Z,10.00
2023-02-05T23:59:00.874Z,10.48
